createdAt,value
2018-09-23T00:01:06.563Z,10.60
2018-09-23T00:03:35.766Z,10.60
2018-09-23T00:06:05.104Z,10.60
2018-09-23T00:08:34.339Z,10.60
2018-09-23T00:11:03.828Z,10.60
2018-09-23T00:13:33.146Z,10.60
2018-09-23T00:16:02.433Z,10.60
2018-09-23T00:18:31.657Z,10.60
2018-09-23T00:21:00.741Z,10.70
2018-09-23T00:23:30.038Z,10.70
2018-09-23T00:25:59.478Z,10.70
2018-09-23T00:28:28.564Z,10.80
2018-09-23T00:30:57.744Z,10.80
2018-09-23T00:33:28.367Z,10.80
2018-09-23T00:35:58.482Z,10.80
2018-09-23T00:38:27.723Z,10.80
2018-09-23T00:40:57.108Z,10.80
2018-09-23T00:43:26.401Z,10.70
2018-09-23T00:45:55.707Z,10.70
2018-09-23T00:48:24.933Z,10.70
2018-09-23T00:50:54.143Z,10.80
2018-09-23T00:53:23.364Z,10.80
2018-09-23T00:55:52.644Z,10.80
2018-09-23T00:58:21.953Z,10.80
2018-09-23T01:00:51.321Z,10.90
2018-09-23T01:03:20.833Z,10.90
2018-09-23T01:05:50.080Z,10.90
2018-09-23T01:08:19.168Z,10.90
2018-09-23T01:10:48.445Z,10.80
2018-09-23T01:13:17.629Z,10.80
2018-09-23T01:15:46.857Z,10.80
2018-09-23T01:18:15.821Z,10.80
2018-09-23T01:20:44.792Z,10.80
2018-09-23T01:23:13.982Z,10.80
2018-09-23T01:25:42.806Z,10.80
2018-09-23T01:28:16.548Z,10.80
2018-09-23T01:30:45.847Z,10.80
2018-09-23T01:33:15.169Z,10.80
2018-09-23T01:35:45.274Z,10.70
2018-09-23T01:38:15.078Z,10.80
2018-09-23T01:40:44.006Z,10.90
2018-09-23T01:43:12.908Z,10.90
2018-09-23T01:45:42.006Z,11.00
2018-09-23T01:48:10.849Z,11.00
2018-09-23T01:50:40.092Z,11.10
2018-09-23T01:53:09.291Z,11.10
2018-09-23T01:55:38.474Z,11.20
2018-09-23T01:58:07.705Z,11.20
2018-09-23T02:00:36.960Z,11.20
2018-09-23T02:03:06.337Z,11.20
2018-09-23T02:05:35.577Z,11.30
2018-09-23T02:08:04.727Z,11.30
2018-09-23T02:10:33.990Z,11.30
2018-09-23T02:13:03.130Z,11.30
2018-09-23T02:15:32.208Z,11.30
2018-09-23T02:18:01.275Z,11.30
2018-09-23T02:20:30.468Z,11.30
2018-09-23T02:22:59.736Z,11.40
2018-09-23T02:25:28.721Z,11.40
2018-09-23T02:27:58.105Z,11.50
2018-09-23T02:30:27.342Z,11.50
2018-09-23T02:32:56.493Z,11.50
2018-09-23T02:35:25.629Z,11.50
2018-09-23T02:37:55.576Z,11.50
2018-09-23T02:40:25.304Z,11.50
2018-09-23T02:42:54.470Z,11.50
2018-09-23T02:45:23.633Z,11.50
2018-09-23T02:47:52.751Z,11.50
2018-09-23T02:50:21.938Z,11.50
2018-09-23T02:52:51.178Z,11.50
2018-09-23T02:55:20.395Z,11.50
2018-09-23T02:57:49.468Z,11.50
2018-09-23T03:00:18.618Z,11.50
2018-09-23T03:02:47.667Z,11.50
2018-09-23T03:05:16.838Z,11.50
2018-09-23T03:07:46.064Z,11.60
2018-09-23T03:10:15.371Z,11.60
2018-09-23T03:12:44.552Z,11.60
2018-09-23T03:15:13.774Z,11.60
2018-09-23T03:17:42.794Z,11.60
2018-09-23T03:20:11.855Z,11.60
2018-09-23T03:22:41.058Z,11.60
2018-09-23T03:25:10.259Z,11.50
2018-09-23T03:27:39.579Z,11.50
2018-09-23T03:30:08.670Z,11.50
2018-09-23T03:32:37.682Z,11.60
2018-09-23T03:35:06.775Z,11.60
2018-09-23T03:37:36.459Z,11.50
2018-09-23T03:40:05.862Z,11.60
2018-09-23T03:42:35.335Z,11.60
2018-09-23T03:45:04.702Z,11.60
2018-09-23T03:47:33.925Z,11.50
2018-09-23T03:50:03.092Z,11.50
2018-09-23T03:52:32.122Z,11.40
2018-09-23T03:55:01.291Z,11.30
2018-09-23T03:57:30.414Z,11.20
2018-09-23T03:59:59.548Z,11.00
2018-09-23T04:02:28.740Z,11.00
2018-09-23T04:04:57.830Z,10.90
2018-09-23T04:07:27.186Z,10.90
2018-09-23T04:09:56.429Z,11.00
2018-09-23T04:12:25.653Z,11.00
2018-09-23T04:14:54.926Z,11.00
2018-09-23T04:17:23.996Z,11.00
2018-09-23T04:19:53.328Z,11.10
2018-09-23T04:22:22.342Z,11.10
2018-09-23T04:24:51.302Z,11.00
2018-09-23T04:27:20.430Z,11.00
2018-09-23T04:29:49.629Z,10.90
2018-09-23T04:32:18.798Z,10.90
2018-09-23T04:34:48.011Z,10.90
2018-09-23T04:37:17.132Z,10.90
2018-09-23T04:39:46.845Z,10.90
2018-09-23T04:42:15.835Z,10.90
2018-09-23T04:44:46.060Z,11.00
2018-09-23T04:47:16.186Z,11.00
2018-09-23T04:49:45.546Z,11.00
2018-09-23T04:52:14.770Z,11.10
2018-09-23T04:54:44.001Z,11.10
2018-09-23T04:57:13.195Z,11.10
2018-09-23T04:59:42.297Z,11.10
2018-09-23T05:02:11.471Z,11.10
2018-09-23T05:04:40.891Z,11.20
2018-09-23T05:07:10.018Z,11.20
2018-09-23T05:09:38.995Z,11.20
2018-09-23T05:12:08.019Z,11.20
2018-09-23T05:14:37.110Z,11.20
2018-09-23T05:17:06.470Z,11.30
2018-09-23T05:19:35.678Z,11.30
2018-09-23T05:22:04.960Z,11.30
2018-09-23T05:24:34.210Z,11.40
2018-09-23T05:27:03.377Z,11.40
2018-09-23T05:29:32.724Z,11.40
2018-09-23T05:32:02.014Z,11.40
2018-09-23T05:34:31.120Z,11.40
2018-09-23T05:37:00.242Z,11.40
2018-09-23T05:39:29.328Z,11.50
2018-09-23T05:41:58.491Z,11.50
2018-09-23T05:44:27.832Z,11.50
2018-09-23T05:47:01.619Z,11.50
2018-09-23T05:49:30.813Z,11.50
2018-09-23T05:52:00.033Z,11.50
2018-09-23T05:54:29.429Z,11.50
2018-09-23T05:56:58.745Z,11.50
2018-09-23T05:59:27.859Z,11.50
2018-09-23T06:01:57.119Z,11.50
2018-09-23T06:04:26.357Z,11.50
2018-09-23T06:06:55.449Z,11.50
2018-09-23T06:09:28.853Z,11.50
2018-09-23T06:11:57.983Z,11.60
2018-09-23T06:14:27.145Z,11.60
2018-09-23T06:16:58.665Z,11.60
2018-09-23T06:19:29.632Z,11.60
2018-09-23T06:21:58.818Z,11.60
2018-09-23T06:24:27.840Z,11.60
2018-09-23T06:26:56.931Z,11.60
2018-09-23T06:29:26.036Z,11.60
2018-09-23T06:31:55.337Z,11.60
2018-09-23T06:34:24.555Z,11.70
2018-09-23T06:36:53.765Z,11.70
2018-09-23T06:39:22.953Z,11.70
2018-09-23T06:41:53.460Z,11.70
2018-09-23T06:44:22.595Z,11.70
2018-09-23T06:46:51.958Z,11.70
2018-09-23T06:49:22.156Z,11.80
2018-09-23T06:51:51.432Z,11.70
2018-09-23T06:54:20.600Z,11.70
2018-09-23T06:56:50.122Z,11.70
2018-09-23T06:59:19.404Z,11.80
2018-09-23T07:01:48.655Z,11.80
2018-09-23T07:04:17.815Z,11.80
2018-09-23T07:06:47.232Z,11.80
2018-09-23T07:09:16.509Z,11.80
2018-09-23T07:11:45.908Z,11.80
2018-09-23T07:14:15.170Z,11.80
2018-09-23T07:16:44.553Z,11.90
2018-09-23T07:19:13.873Z,11.90
2018-09-23T07:21:42.843Z,11.90
2018-09-23T07:27:05.282Z,11.90
2018-09-23T07:29:34.155Z,11.90
2018-09-23T07:32:03.059Z,11.90
2018-09-23T07:34:32.616Z,11.90
2018-09-23T07:37:01.567Z,11.90
2018-09-23T07:39:31.060Z,11.90
2018-09-23T07:41:59.878Z,11.90
2018-09-23T07:44:29.792Z,11.90
2018-09-23T07:46:58.869Z,11.90
2018-09-23T07:49:29.521Z,12.00
2018-09-23T07:51:59.628Z,12.00
2018-09-23T07:54:28.644Z,12.00
2018-09-23T07:56:59.505Z,12.00
2018-09-23T07:59:29.658Z,12.10
2018-09-23T08:01:59.125Z,12.10
2018-09-23T08:04:29.717Z,12.10
2018-09-23T08:06:58.997Z,12.20
2018-09-23T08:09:27.905Z,12.20
2018-09-23T08:11:59.781Z,12.20
2018-09-23T08:14:30.207Z,12.30
2018-09-23T08:16:58.812Z,12.30
2018-09-23T08:19:28.053Z,12.30
2018-09-23T08:21:57.336Z,12.30
2018-09-23T08:24:27.019Z,12.30
2018-09-23T08:26:57.885Z,12.30
2018-09-23T08:29:32.730Z,12.30
2018-09-23T08:32:01.663Z,12.30
2018-09-23T08:34:30.691Z,12.30
2018-09-23T08:37:00.501Z,12.30
2018-09-23T08:39:29.402Z,12.40
2018-09-23T08:41:59.718Z,12.40
2018-09-23T08:44:28.808Z,12.40
2018-09-23T08:46:57.740Z,12.40
2018-09-23T08:49:26.636Z,12.50
2018-09-23T08:51:55.766Z,12.50
2018-09-23T08:54:25.249Z,12.50
2018-09-23T08:56:54.299Z,12.50
2018-09-23T08:59:23.868Z,12.50
2018-09-23T09:01:53.127Z,12.50
2018-09-23T09:04:22.538Z,12.50
2018-09-23T09:06:51.471Z,12.50
2018-09-23T09:09:20.571Z,12.50
2018-09-23T09:11:50.147Z,12.50
2018-09-23T09:14:19.059Z,12.60
2018-09-23T09:16:48.254Z,12.60
2018-09-23T09:19:17.388Z,12.60
2018-09-23T09:21:46.692Z,12.60
2018-09-23T09:24:15.663Z,12.60
2018-09-23T09:26:44.870Z,12.70
2018-09-23T09:29:15.059Z,12.70
2018-09-23T09:31:46.148Z,12.70
2018-09-23T09:34:15.228Z,12.70
2018-09-23T09:36:46.127Z,12.90
2018-09-23T09:39:15.326Z,13.20
2018-09-23T09:41:44.457Z,13.40
2018-09-23T09:44:13.551Z,13.70
2018-09-23T09:46:42.564Z,14.00
2018-09-23T09:49:15.963Z,14.30
2018-09-23T09:51:45.075Z,14.60
2018-09-23T09:54:14.081Z,14.80
2018-09-23T09:56:43.777Z,14.90
2018-09-23T09:59:12.857Z,15.10
2018-09-23T10:01:42.359Z,15.40
2018-09-23T10:04:11.615Z,15.60
2018-09-23T10:06:40.712Z,15.90
2018-09-23T10:09:10.932Z,16.40
2018-09-23T10:11:40.950Z,16.40
2018-09-23T10:14:11.989Z,16.30
2018-09-23T10:16:41.045Z,16.30
2018-09-23T10:19:10.262Z,16.30
2018-09-23T10:21:39.858Z,16.20
2018-09-23T10:24:08.777Z,16.20
2018-09-23T10:26:38.723Z,16.30
2018-09-23T10:29:07.828Z,16.60
2018-09-23T10:31:36.807Z,16.70
2018-09-23T10:34:06.415Z,16.50
2018-09-23T10:36:36.690Z,16.30
2018-09-23T10:39:08.325Z,16.10
2018-09-23T10:41:37.376Z,16.00
2018-09-23T10:44:07.122Z,15.90
2018-09-23T10:46:37.025Z,16.10
2018-09-23T10:49:06.930Z,16.20
2018-09-23T10:51:35.693Z,16.30
2018-09-23T10:54:05.277Z,16.30
2018-09-23T10:56:34.435Z,16.30
2018-09-23T10:59:03.890Z,16.40
2018-09-23T11:01:33.106Z,16.40
2018-09-23T11:04:03.203Z,16.40
2018-09-23T11:06:33.493Z,16.20
2018-09-23T11:09:02.767Z,16.10
2018-09-23T11:11:32.686Z,16.00
2018-09-23T11:14:02.519Z,15.80
2018-09-23T11:16:31.811Z,15.60
2018-09-23T11:19:01.774Z,15.50
2018-09-23T11:21:30.788Z,15.40
2018-09-23T11:24:01.058Z,15.30
2018-09-23T11:26:30.172Z,15.10
2018-09-23T11:28:59.297Z,14.80
2018-09-23T11:31:29.641Z,14.60
2018-09-23T11:33:58.812Z,14.30
2018-09-23T11:36:29.025Z,14.10
2018-09-23T11:38:58.141Z,13.90
2018-09-23T11:41:27.951Z,13.70
2018-09-23T11:43:57.045Z,13.50
2018-09-23T11:46:26.167Z,13.30
2018-09-23T11:48:56.281Z,13.20
2018-09-23T11:51:25.173Z,13.00
2018-09-23T11:53:54.340Z,12.90
2018-09-23T11:56:24.014Z,12.80
2018-09-23T11:58:53.883Z,12.80
2018-09-23T12:01:23.053Z,12.70
2018-09-23T12:03:52.292Z,12.60
2018-09-23T12:06:22.002Z,12.60
2018-09-23T12:08:51.594Z,12.40
2018-09-23T12:11:24.165Z,12.30
2018-09-23T12:13:53.398Z,12.20
2018-09-23T12:16:22.553Z,12.20
2018-09-23T12:18:51.554Z,12.10
2018-09-23T12:21:20.651Z,12.20
2018-09-23T12:23:49.813Z,12.10
2018-09-23T12:26:19.423Z,12.10
2018-09-23T12:28:49.094Z,12.10
2018-09-23T12:31:19.358Z,12.10
2018-09-23T12:33:49.513Z,12.10
2018-09-23T12:36:18.480Z,12.00
2018-09-23T12:38:47.598Z,11.90
2018-09-23T12:41:16.801Z,11.90
2018-09-23T12:43:46.036Z,11.90
2018-09-23T12:46:15.301Z,11.80
2018-09-23T12:48:44.510Z,11.80
2018-09-23T12:51:13.578Z,11.80
2018-09-23T12:53:42.644Z,11.90
2018-09-23T12:56:11.716Z,11.90
2018-09-23T12:58:41.170Z,12.00
2018-09-23T13:01:10.381Z,12.00
2018-09-23T13:03:39.400Z,12.10
2018-09-23T13:06:08.388Z,12.10
2018-09-23T13:08:37.468Z,12.10
2018-09-23T13:11:06.566Z,12.10
2018-09-23T13:13:35.661Z,12.00
2018-09-23T13:16:04.562Z,12.00
2018-09-23T13:18:33.674Z,11.90
2018-09-23T13:21:03.055Z,11.90
2018-09-23T13:23:32.179Z,11.90
2018-09-23T13:26:01.186Z,11.80
2018-09-23T13:28:30.469Z,11.80
2018-09-23T13:30:59.564Z,11.80
2018-09-23T13:33:28.524Z,11.70
2018-09-23T13:35:57.733Z,11.70
2018-09-23T13:38:26.946Z,11.70
2018-09-23T13:40:56.403Z,11.70
2018-09-23T13:43:27.509Z,11.70
2018-09-23T13:45:56.623Z,11.60
2018-09-23T13:48:25.634Z,11.70
2018-09-23T13:50:54.798Z,11.70
2018-09-23T13:53:23.711Z,11.70
2018-09-23T13:55:53.215Z,11.60
2018-09-23T13:58:22.349Z,11.60
2018-09-23T14:00:51.456Z,11.50
2018-09-23T14:03:20.593Z,11.50
2018-09-23T14:05:49.711Z,11.50
2018-09-23T14:08:18.700Z,11.40
2018-09-23T14:10:47.919Z,11.40
2018-09-23T14:13:17.095Z,11.40
2018-09-23T14:15:46.163Z,11.40
2018-09-23T14:18:15.184Z,11.40
2018-09-23T14:20:44.219Z,11.40
2018-09-23T14:23:13.125Z,11.40
2018-09-23T14:25:42.200Z,11.40
2018-09-23T14:28:11.849Z,11.40
2018-09-23T14:30:40.902Z,11.40
2018-09-23T14:33:10.012Z,11.40
2018-09-23T14:35:40.183Z,11.40
2018-09-23T14:38:09.176Z,11.40
2018-09-23T14:40:38.208Z,11.40
2018-09-23T14:43:08.449Z,11.40
2018-09-23T14:45:38.061Z,11.30
2018-09-23T14:48:06.919Z,11.30
2018-09-23T14:50:36.153Z,11.30
2018-09-23T14:53:05.387Z,11.20
2018-09-23T14:55:35.180Z,11.10
2018-09-23T14:58:04.056Z,11.10
2018-09-23T15:00:33.249Z,11.10
2018-09-23T15:03:02.306Z,11.10
2018-09-23T15:05:32.412Z,11.10
2018-09-23T15:08:01.374Z,11.10
2018-09-23T15:10:30.607Z,11.00
2018-09-23T15:12:59.773Z,11.00
2018-09-23T15:15:28.978Z,11.00
2018-09-23T15:17:58.563Z,11.00
2018-09-23T15:20:27.633Z,11.00
2018-09-23T15:22:57.434Z,11.00
2018-09-23T15:25:26.421Z,11.00
2018-09-23T15:27:55.424Z,10.90
2018-09-23T15:30:24.407Z,10.90
2018-09-23T15:32:53.478Z,10.90
2018-09-23T15:35:22.474Z,10.90
2018-09-23T15:37:52.787Z,10.80
2018-09-23T15:40:21.977Z,10.90
2018-09-23T15:43:00.922Z,10.90
2018-09-23T15:45:29.987Z,10.90
2018-09-23T15:48:00.777Z,10.90
2018-09-23T15:50:29.989Z,10.80
2018-09-23T15:52:59.470Z,10.90
2018-09-23T15:55:28.740Z,10.80
2018-09-23T15:58:02.223Z,10.80
2018-09-23T16:00:31.587Z,10.80
2018-09-23T16:03:00.434Z,10.70
2018-09-23T16:05:29.313Z,10.70
2018-09-23T16:07:58.149Z,10.80
2018-09-23T16:10:26.974Z,10.90
2018-09-23T16:12:56.271Z,11.10
2018-09-23T16:15:26.488Z,11.30
2018-09-23T16:17:55.578Z,11.60
2018-09-23T16:20:24.717Z,11.80
2018-09-23T16:22:53.638Z,12.10
2018-09-23T16:25:23.050Z,12.30
2018-09-23T16:27:52.271Z,12.60
2018-09-23T16:30:21.287Z,12.50
2018-09-23T16:32:50.428Z,12.30
2018-09-23T16:35:19.577Z,12.10
2018-09-23T16:37:52.917Z,11.70
2018-09-23T16:40:22.188Z,11.60
2018-09-23T16:42:51.832Z,11.40
2018-09-23T16:45:20.989Z,11.10
2018-09-23T16:47:50.414Z,11.00
2018-09-23T16:50:19.341Z,11.00
2018-09-23T16:52:48.819Z,10.80
2018-09-23T16:55:18.549Z,10.80
2018-09-23T16:57:47.848Z,10.70
2018-09-23T17:00:17.496Z,10.70
2018-09-23T17:02:46.632Z,10.60
2018-09-23T17:05:15.659Z,10.60
2018-09-23T17:07:44.834Z,10.60
2018-09-23T17:10:13.843Z,10.60
2018-09-23T17:12:43.053Z,10.50
2018-09-23T17:15:13.321Z,10.50
2018-09-23T17:17:42.325Z,10.40
2018-09-23T17:20:11.268Z,10.40
2018-09-23T17:22:40.869Z,10.50
2018-09-23T17:25:10.493Z,10.50
2018-09-23T17:27:39.811Z,10.50
2018-09-23T17:30:08.988Z,10.40
2018-09-23T17:32:38.721Z,10.40
2018-09-23T17:35:07.914Z,10.30
2018-09-23T17:37:37.095Z,10.30
2018-09-23T17:40:06.132Z,10.20
2018-09-23T17:42:35.853Z,10.20
2018-09-23T17:45:05.019Z,10.10
2018-09-23T17:47:33.893Z,10.10
2018-09-23T17:50:03.039Z,10.10
2018-09-23T17:52:31.877Z,10.00
2018-09-23T17:55:00.799Z,10.00
2018-09-23T17:57:29.938Z,10.00
2018-09-23T17:59:59.066Z,10.00
2018-09-23T18:02:28.788Z,9.90
2018-09-23T18:04:57.846Z,9.80
2018-09-23T18:07:27.045Z,9.80
2018-09-23T18:09:56.340Z,9.80
2018-09-23T18:12:25.402Z,9.80
2018-09-23T18:14:54.442Z,9.80
2018-09-23T18:17:23.728Z,9.70
2018-09-23T18:19:52.939Z,9.70
2018-09-23T18:22:22.457Z,9.70
2018-09-23T18:24:52.388Z,9.70
2018-09-23T18:27:21.481Z,9.60
2018-09-23T18:29:50.375Z,9.60
2018-09-23T18:32:20.020Z,9.60
2018-09-23T18:34:49.179Z,9.60
2018-09-23T18:37:18.396Z,9.50
2018-09-23T18:39:47.617Z,9.60
2018-09-23T18:42:18.056Z,9.60
2018-09-23T18:44:47.318Z,9.60
2018-09-23T18:47:17.100Z,9.60
2018-09-23T18:49:46.078Z,9.60
2018-09-23T18:52:15.553Z,9.60
2018-09-23T18:54:49.769Z,9.60
2018-09-23T18:57:19.083Z,9.60
2018-09-23T18:59:48.174Z,9.60
2018-09-23T19:02:18.120Z,9.50
2018-09-23T19:04:47.351Z,9.60
2018-09-23T19:07:16.385Z,9.60
2018-09-23T19:09:45.573Z,9.50
2018-09-23T19:12:14.745Z,9.50
2018-09-23T19:14:44.087Z,9.50
2018-09-23T19:17:13.184Z,9.50
2018-09-23T19:19:47.377Z,9.60
2018-09-23T19:22:21.673Z,9.50
2018-09-23T19:24:51.011Z,9.50
2018-09-23T19:27:20.151Z,9.50
2018-09-23T19:29:49.298Z,9.50
2018-09-23T19:32:18.712Z,9.50
2018-09-23T19:34:48.000Z,9.50
2018-09-23T19:37:17.536Z,9.50
2018-09-23T19:39:46.716Z,9.50
2018-09-23T19:42:16.673Z,9.50
2018-09-23T19:44:47.403Z,9.50
2018-09-23T19:47:16.554Z,9.50
2018-09-23T19:49:46.302Z,9.50
2018-09-23T19:52:16.411Z,9.50
2018-09-23T19:54:45.950Z,9.50
2018-09-23T19:57:14.966Z,9.40
2018-09-23T19:59:44.370Z,9.40
2018-09-23T20:02:13.435Z,9.40
2018-09-23T20:04:44.524Z,9.40
2018-09-23T20:07:13.663Z,9.40
2018-09-23T20:09:42.785Z,9.40
2018-09-23T20:12:12.576Z,9.30
2018-09-23T20:14:41.912Z,9.30
2018-09-23T20:17:11.022Z,9.30
2018-09-23T20:19:40.718Z,9.30
2018-09-23T20:22:10.839Z,9.30
2018-09-23T20:24:40.340Z,9.30
2018-09-23T20:27:09.507Z,9.30
2018-09-23T20:29:43.384Z,9.30
2018-09-23T20:32:12.438Z,9.30
2018-09-23T20:34:41.538Z,9.30
2018-09-23T20:37:10.509Z,9.30
2018-09-23T20:39:39.563Z,9.30
2018-09-23T20:42:08.523Z,9.30
2018-09-23T20:44:37.629Z,9.30
2018-09-23T20:47:08.135Z,9.30
2018-09-23T20:49:38.239Z,9.30
2018-09-23T20:52:07.658Z,9.30
2018-09-23T20:54:36.977Z,9.30
2018-09-23T20:57:05.795Z,9.30
2018-09-23T20:59:34.746Z,9.20
2018-09-23T21:02:03.887Z,9.20
2018-09-23T21:04:37.543Z,9.20
2018-09-23T21:07:07.290Z,9.20
2018-09-23T21:09:36.391Z,9.20
2018-09-23T21:12:05.606Z,9.20
2018-09-23T21:14:34.585Z,9.10
2018-09-23T21:17:03.792Z,9.10
2018-09-23T21:19:33.625Z,9.00
2018-09-23T21:22:02.620Z,9.00
2018-09-23T21:24:31.573Z,9.00
2018-09-23T21:27:00.596Z,9.00
2018-09-23T21:29:30.311Z,9.00
2018-09-23T21:31:59.359Z,9.00
2018-09-23T21:34:28.806Z,9.00
2018-09-23T21:36:57.788Z,9.00
2018-09-23T21:39:26.825Z,9.00
2018-09-23T21:41:55.728Z,8.90
2018-09-23T21:44:25.190Z,8.90
2018-09-23T21:46:54.210Z,8.90
2018-09-23T21:49:23.158Z,8.90
2018-09-23T21:51:52.170Z,8.90
2018-09-23T21:54:21.512Z,8.90
2018-09-23T21:56:50.501Z,8.80
2018-09-23T21:59:19.929Z,8.80
2018-09-23T22:01:49.346Z,8.80
2018-09-23T22:04:18.301Z,8.80
2018-09-23T22:06:48.773Z,8.70
2018-09-23T22:09:17.803Z,8.70
2018-09-23T22:11:46.745Z,8.70
2018-09-23T22:14:16.652Z,8.70
2018-09-23T22:16:46.321Z,8.70
2018-09-23T22:19:15.301Z,8.70
2018-09-23T22:21:44.942Z,8.70
2018-09-23T22:24:13.967Z,8.70
2018-09-23T22:26:44.038Z,8.60
2018-09-23T22:29:13.452Z,8.60
2018-09-23T22:31:42.423Z,8.70
2018-09-23T22:34:12.133Z,8.60
2018-09-23T22:36:42.200Z,8.70
2018-09-23T22:39:11.222Z,8.60
2018-09-23T22:41:40.274Z,8.60
2018-09-23T22:44:09.117Z,8.60
2018-09-23T22:46:38.827Z,8.50
2018-09-23T22:49:07.805Z,8.50
2018-09-23T22:51:36.804Z,8.50
2018-09-23T22:54:06.543Z,8.50
2018-09-23T22:56:36.341Z,8.50
2018-09-23T22:59:05.532Z,8.40
2018-09-23T23:01:34.848Z,8.40
2018-09-23T23:04:04.353Z,8.40
2018-09-23T23:06:33.442Z,8.40
2018-09-23T23:09:05.622Z,8.40
2018-09-23T23:11:35.048Z,8.40
2018-09-23T23:14:03.965Z,8.30
2018-09-23T23:16:33.926Z,8.30
2018-09-23T23:19:02.932Z,8.30
2018-09-23T23:21:31.976Z,8.30
2018-09-23T23:24:01.602Z,8.30
2018-09-23T23:26:30.658Z,8.30
2018-09-23T23:29:00.160Z,8.30
2018-09-23T23:31:30.017Z,8.30
2018-09-23T23:33:59.068Z,8.30
2018-09-23T23:36:28.188Z,8.30
2018-09-23T23:38:57.255Z,8.30
2018-09-23T23:41:26.386Z,8.20
2018-09-23T23:43:55.389Z,8.20
2018-09-23T23:46:24.852Z,8.20
2018-09-23T23:48:53.880Z,8.20
2018-09-23T23:51:22.947Z,8.20
2018-09-23T23:53:52.769Z,8.20
2018-09-23T23:56:21.713Z,8.10
2018-09-23T23:58:50.855Z,8.10
